createdAt,value
2023-02-15T00:02:47.925Z,544.1
2023-02-15T00:05:47.888Z,492.9
2023-02-15T00:08:47.889Z,663.1
2023-02-15T00:11:47.896Z,507.8
2023-02-15T00:14:47.904Z,660.9
2023-02-15T00:17:47.943Z,559.6
2023-02-15T00:20:47.909Z,651.5
2023-02-15T00:23:47.935Z,625.4
2023-02-15T00:26:47.920Z,522.6
2023-02-15T00:29:47.931Z,571.8
2023-02-15T00:32:47.921Z,434.5
2023-02-15T00:35:47.956Z,346
2023-02-15T00:38:47.930Z,573.9
2023-02-15T00:41:47.960Z,396.7
2023-02-15T00:44:47.946Z,415.2
2023-02-15T00:47:47.947Z,394.4
2023-02-15T00:50:47.951Z,374.1
2023-02-15T00:53:47.972Z,556.4
2023-02-15T00:56:47.959Z,333.8
2023-02-15T00:59:47.957Z,355.1
2023-02-15T01:02:47.969Z,485.4
2023-02-15T01:05:47.978Z,319.4
2023-02-15T01:08:47.980Z,458.6
2023-02-15T01:11:48.021Z,374.1
2023-02-15T01:14:47.988Z,411
2023-02-15T01:17:47.983Z,362.9
2023-02-15T01:20:47.990Z,346.8
2023-02-15T01:23:48.026Z,443.3
2023-02-15T01:26:47.998Z,527.8
2023-02-15T01:29:48.032Z,729.5
2023-02-15T01:32:48.008Z,508
2023-02-15T01:35:48.012Z,411.9
2023-02-15T01:38:48.022Z,392.1
2023-02-15T01:41:48.025Z,486.3
2023-02-15T01:44:48.027Z,429.3
2023-02-15T01:47:48.056Z,476.9
2023-02-15T01:50:48.036Z,417.5
2023-02-15T01:53:48.032Z,371.8
2023-02-15T01:56:48.034Z,307.7
2023-02-15T01:59:48.033Z,354.6
2023-02-15T02:02:48.094Z,333.3
2023-02-15T02:05:48.078Z,456.8
2023-02-15T02:08:48.050Z,273.8
2023-02-15T02:11:48.090Z,328.2
2023-02-15T02:14:48.067Z,259
2023-02-15T02:17:48.061Z,285.8
2023-02-15T02:20:48.071Z,236.8
2023-02-15T02:23:48.102Z,276
2023-02-15T02:26:48.121Z,327
2023-02-15T02:29:48.127Z,248.8
2023-02-15T02:32:48.082Z,245.5
2023-02-15T02:35:48.080Z,301.8
2023-02-15T02:38:48.082Z,264.5
2023-02-15T02:41:48.115Z,310
2023-02-15T02:44:48.096Z,255.2
2023-02-15T02:47:48.100Z,542.2
2023-02-15T02:50:48.107Z,424.1
2023-02-15T02:53:48.100Z,334.5
2023-02-15T02:56:48.104Z,227
2023-02-15T02:59:48.135Z,294.2
2023-02-15T03:02:48.142Z,273.2
2023-02-15T03:05:48.121Z,331.2
2023-02-15T03:08:48.125Z,361.9
2023-02-15T03:11:48.132Z,328.4
2023-02-15T03:14:48.135Z,293.6
2023-02-15T03:17:48.165Z,348.8
2023-02-15T03:20:48.149Z,337.1
2023-02-15T03:23:48.146Z,366.5
2023-02-15T03:26:48.184Z,217.5
2023-02-15T03:29:48.159Z,311.7
2023-02-15T03:32:48.170Z,240.8
2023-02-15T03:35:48.189Z,381.3
2023-02-15T03:38:48.180Z,277.9
2023-02-15T03:41:48.175Z,226.2
2023-02-15T03:44:48.179Z,315.4
2023-02-15T03:47:48.192Z,273.8
2023-02-15T03:50:48.181Z,303
2023-02-15T03:53:48.215Z,280.8
2023-02-15T03:56:48.191Z,288.1
2023-02-15T03:59:48.200Z,317.3
2023-02-15T04:02:48.300Z,194.1
2023-02-15T04:05:48.208Z,338.1
2023-02-15T04:08:48.234Z,341.3
2023-02-15T04:11:48.241Z,348.2
2023-02-15T04:14:48.216Z,484.1
2023-02-15T04:17:48.226Z,432.8
2023-02-15T04:20:48.221Z,246.2
2023-02-15T04:23:48.238Z,360.1
2023-02-15T04:26:48.224Z,335.7
2023-02-15T04:29:48.250Z,227.9
2023-02-15T04:32:48.238Z,319.3
2023-02-15T04:35:48.388Z,197.6
2023-02-15T04:38:48.238Z,333.3
2023-02-15T04:41:48.241Z,226.6
2023-02-15T04:44:48.249Z,330.4
2023-02-15T04:47:48.299Z,293.9
2023-02-15T04:50:48.252Z,253.1
2023-02-15T04:53:48.253Z,279.5
2023-02-15T04:56:48.291Z,391.9
2023-02-15T04:59:48.261Z,498.1
2023-02-15T05:02:48.270Z,339.9
2023-02-15T05:05:48.298Z,230.6
2023-02-15T05:08:48.280Z,327.1
2023-02-15T05:11:48.282Z,248.1
2023-02-15T05:14:48.290Z,405.6
2023-02-15T05:17:48.291Z,362.1
2023-02-15T05:20:48.294Z,329.3
2023-02-15T05:23:48.316Z,260.1
2023-02-15T05:26:48.306Z,271.7
2023-02-15T05:29:48.316Z,242.5
2023-02-15T05:32:48.375Z,242.2
2023-02-15T05:35:48.312Z,256.2
2023-02-15T05:38:48.315Z,276.2
2023-02-15T05:41:48.347Z,258.5
2023-02-15T05:44:48.325Z,208.1
2023-02-15T05:47:48.333Z,213
2023-02-15T05:50:48.333Z,254.8
2023-02-15T05:53:48.335Z,191.8
2023-02-15T05:56:48.332Z,207.9
2023-02-15T05:59:48.359Z,262.4
2023-02-15T06:02:48.467Z,205.6
2023-02-15T06:05:48.344Z,311.4
2023-02-15T06:08:48.349Z,251.2
2023-02-15T06:11:48.348Z,151.7
2023-02-15T06:14:48.349Z,228.2
2023-02-15T06:17:48.385Z,186.8
2023-02-15T06:20:48.391Z,205.2
2023-02-15T06:23:48.393Z,169.6
2023-02-15T06:26:48.418Z,242.3
2023-02-15T06:29:48.417Z,222.7
2023-02-15T06:32:48.424Z,233.4
2023-02-15T06:35:48.460Z,235.6
2023-02-15T06:38:48.439Z,171.3
2023-02-15T06:41:48.442Z,211.4
2023-02-15T06:44:48.466Z,196.3
2023-02-15T06:47:48.460Z,170
2023-02-15T06:50:48.459Z,182.5
2023-02-15T06:53:48.602Z,159.9
2023-02-15T06:56:48.471Z,228.3
2023-02-15T06:59:48.481Z,175.1
2023-02-15T07:02:48.476Z,221.8
2023-02-15T07:05:48.478Z,196.1
2023-02-15T07:08:48.483Z,158.7
2023-02-15T07:11:48.516Z,120.3
2023-02-15T07:14:48.490Z,223
2023-02-15T07:17:48.498Z,172.6
2023-02-15T07:20:48.514Z,192.4
2023-02-15T07:23:48.525Z,204.8
2023-02-15T07:26:48.522Z,203.6
2023-02-15T07:29:48.565Z,213.7
2023-02-15T07:32:48.533Z,220.2
2023-02-15T07:35:48.539Z,170.3
2023-02-15T07:38:48.535Z,203.5
2023-02-15T07:41:48.549Z,176.5
2023-02-15T07:44:48.620Z,137.6
2023-02-15T07:47:48.590Z,248.6
2023-02-15T07:50:48.554Z,225.2
2023-02-15T07:53:48.561Z,226
2023-02-15T07:56:48.567Z,219.9
2023-02-15T07:59:48.569Z,212.3
2023-02-15T08:02:48.618Z,251
2023-02-15T08:05:48.684Z,137.5
2023-02-15T08:08:48.581Z,151.3
2023-02-15T08:11:48.609Z,141.7
2023-02-15T08:14:48.633Z,158.6
2023-02-15T08:17:48.594Z,245.3
2023-02-15T08:20:48.662Z,245.4
2023-02-15T08:23:48.623Z,344
2023-02-15T08:26:48.607Z,255.6
2023-02-15T08:29:48.604Z,400.7
2023-02-15T08:32:48.610Z,362.8
2023-02-15T08:35:48.627Z,430
2023-02-15T08:38:48.631Z,265.5
2023-02-15T08:41:48.659Z,207
2023-02-15T08:44:50.344Z,149
2023-02-15T08:47:48.625Z,173.9
2023-02-15T08:50:48.624Z,181.8
2023-02-15T08:53:48.690Z,116.1
2023-02-15T08:56:48.731Z,145.1
2023-02-15T08:59:48.669Z,93.5
2023-02-15T09:02:48.956Z,117.9
2023-02-15T09:05:48.737Z,79.6
2023-02-15T09:08:48.770Z,103.2
2023-02-15T09:11:48.810Z,133
2023-02-15T09:14:48.675Z,153.9
2023-02-15T09:17:48.708Z,132.3
2023-02-15T09:20:48.687Z,89
2023-02-15T09:23:48.685Z,157.1
2023-02-15T09:26:48.719Z,137.6
2023-02-15T09:29:48.699Z,96
2023-02-15T09:32:48.703Z,69.7
2023-02-15T09:35:48.789Z,66.3
2023-02-15T09:38:48.712Z,74
2023-02-15T09:41:48.720Z,63.4
2023-02-15T09:44:48.729Z,52
2023-02-15T09:47:48.727Z,49.1
2023-02-15T09:50:48.726Z,54.7
2023-02-15T09:53:48.752Z,47.8
2023-02-15T09:56:48.734Z,42.9
2023-02-15T09:59:48.744Z,40.9
2023-02-15T10:02:48.747Z,33.9
2023-02-15T10:05:48.761Z,29.9
2023-02-15T10:08:48.765Z,26.3
2023-02-15T10:11:48.918Z,26.8
2023-02-15T10:14:48.773Z,29.1
2023-02-15T10:17:48.786Z,53.3
2023-02-15T10:20:48.788Z,29.8
2023-02-15T10:23:48.781Z,39.5
2023-02-15T10:26:48.781Z,31.9
2023-02-15T10:29:48.805Z,26.1
2023-02-15T10:32:48.786Z,32.5
2023-02-15T10:35:48.789Z,28.5
2023-02-15T10:38:48.793Z,29
2023-02-15T10:41:48.810Z,28.4
2023-02-15T10:44:48.800Z,29.2
2023-02-15T10:47:48.940Z,30.1
2023-02-15T10:50:48.819Z,25.7
2023-02-15T10:53:48.810Z,26.5
2023-02-15T10:56:48.809Z,29.8
2023-02-15T10:59:48.819Z,39.1
2023-02-15T11:02:48.917Z,25.7
2023-02-15T11:05:48.853Z,25.7
2023-02-15T11:08:48.840Z,23.4
2023-02-15T11:11:48.838Z,20.8
2023-02-15T11:14:48.852Z,21.6
2023-02-15T11:17:48.844Z,20.4
2023-02-15T11:20:48.851Z,21.1
2023-02-15T11:23:49.051Z,22.2
2023-02-15T11:26:48.863Z,20.7
2023-02-15T11:29:48.878Z,20
2023-02-15T11:32:48.886Z,21.6
2023-02-15T11:35:48.897Z,20.3
2023-02-15T11:38:48.879Z,20.9
2023-02-15T11:41:48.955Z,19.8
2023-02-15T11:44:48.885Z,20.2
2023-02-15T11:47:48.902Z,21.4
2023-02-15T11:50:48.903Z,21.5
2023-02-15T11:53:48.902Z,21.7
2023-02-15T11:56:48.905Z,21.7
2023-02-15T11:59:48.939Z,22.1
2023-02-15T12:02:48.941Z,22.2
2023-02-15T12:05:48.917Z,21
2023-02-15T12:08:48.913Z,21.2
2023-02-15T12:11:48.922Z,20.5
2023-02-15T12:14:48.917Z,20.9
2023-02-15T12:17:48.954Z,18.9
2023-02-15T12:20:48.923Z,20
2023-02-15T12:23:48.928Z,20.2
2023-02-15T12:26:48.926Z,19.6
2023-02-15T12:29:48.932Z,21.1
2023-02-15T12:32:48.939Z,20.3
2023-02-15T12:35:48.963Z,20.3
2023-02-15T12:38:48.954Z,19.7
2023-02-15T12:41:48.957Z,20.4
2023-02-15T12:44:48.958Z,20.3
2023-02-15T12:47:48.967Z,19.6
2023-02-15T12:50:54.657Z,18.8
2023-02-15T12:53:48.997Z,18.3
2023-02-15T12:56:48.976Z,18.7
2023-02-15T12:59:48.979Z,19.8
2023-02-15T13:02:48.985Z,18.1
2023-02-15T13:05:48.982Z,20.6
2023-02-15T13:08:48.993Z,20.8
2023-02-15T13:11:49.025Z,19.4
2023-02-15T13:14:49.004Z,18.1
2023-02-15T13:17:49.006Z,19.4
2023-02-15T13:20:49.014Z,18.7
2023-02-15T13:23:49.031Z,19.8
2023-02-15T13:26:49.011Z,19
2023-02-15T13:29:49.039Z,13.9
2023-02-15T13:32:49.024Z,9.7
2023-02-15T13:35:49.035Z,9.1
2023-02-15T13:38:49.039Z,9.7
2023-02-15T13:41:49.052Z,9.5
2023-02-15T13:44:49.047Z,9.7
2023-02-15T13:47:49.081Z,10.3
2023-02-15T13:50:49.053Z,9.6
2023-02-15T13:53:49.065Z,10
2023-02-15T13:56:49.068Z,10.1
2023-02-15T13:59:49.065Z,10.6
2023-02-15T14:02:49.082Z,11.8
2023-02-15T14:05:49.116Z,11.4
2023-02-15T14:08:49.095Z,11
2023-02-15T14:11:49.089Z,11.8
2023-02-15T14:14:49.091Z,11.6
2023-02-15T14:17:49.094Z,10.4
2023-02-15T14:20:49.107Z,10.6
2023-02-15T14:23:49.130Z,12.1
2023-02-15T14:26:49.109Z,12.5
2023-02-15T14:29:49.113Z,12
2023-02-15T14:32:49.113Z,10.6
2023-02-15T14:35:49.120Z,12.5
2023-02-15T14:38:49.131Z,12.1
2023-02-15T14:41:49.229Z,12.2
2023-02-15T14:44:49.122Z,11.8
2023-02-15T14:47:49.131Z,11.9
2023-02-15T14:50:49.152Z,11.9
2023-02-15T14:53:49.144Z,12.6
2023-02-15T14:56:49.155Z,12.7
2023-02-15T14:59:49.189Z,11.4
2023-02-15T15:02:49.693Z,12.3
2023-02-15T15:05:49.168Z,11.4
2023-02-15T15:08:49.180Z,12.2
2023-02-15T15:11:49.181Z,12.4
2023-02-15T15:14:49.184Z,11.4
2023-02-15T15:17:49.225Z,11.7
2023-02-15T15:20:51.468Z,11.5
2023-02-15T15:23:49.235Z,11.9
2023-02-15T15:26:50.580Z,11.6
2023-02-15T15:29:49.210Z,12.6
2023-02-15T15:32:49.217Z,12.2
2023-02-15T15:35:49.352Z,14
2023-02-15T15:38:49.244Z,14.5
2023-02-15T15:41:49.232Z,15
2023-02-15T15:44:49.262Z,14.2
2023-02-15T15:47:53.390Z,14.1
2023-02-15T15:50:49.682Z,14.2
2023-02-15T15:53:49.282Z,14.5
2023-02-15T15:56:49.261Z,13.9
2023-02-15T15:59:49.276Z,14.1
2023-02-15T16:02:49.278Z,13.9
2023-02-15T16:05:49.272Z,14.1
2023-02-15T16:08:49.276Z,16.4
2023-02-15T16:11:49.315Z,13.9
2023-02-15T16:14:49.287Z,14.7
2023-02-15T16:17:49.293Z,14.4
2023-02-15T16:20:49.286Z,14
2023-02-15T16:23:49.295Z,14.5
2023-02-15T16:26:49.302Z,15.2
2023-02-15T16:29:49.328Z,14.3
2023-02-15T16:32:49.310Z,16.1
2023-02-15T16:35:49.301Z,15.1
2023-02-15T16:38:49.317Z,14.5
2023-02-15T16:41:49.308Z,15.9
2023-02-15T16:44:49.309Z,16.6
2023-02-15T16:47:49.355Z,17.9
2023-02-15T16:50:49.309Z,19.7
2023-02-15T16:53:49.315Z,18.7
2023-02-15T16:56:49.335Z,18.8
2023-02-15T16:59:49.331Z,19.9
2023-02-15T17:02:56.270Z,18.4
2023-02-15T17:05:49.384Z,18.1
2023-02-15T17:08:49.334Z,20.9
2023-02-15T17:11:49.337Z,19.9
2023-02-15T17:14:49.341Z,21
2023-02-15T17:17:49.357Z,21.3
2023-02-15T17:20:49.351Z,21.1
2023-02-15T17:23:49.377Z,25.9
2023-02-15T17:26:49.352Z,29.7
2023-02-15T17:29:49.358Z,29.3
2023-02-15T17:32:49.367Z,28
2023-02-15T17:35:49.369Z,29.2
2023-02-15T17:38:49.374Z,33.5
2023-02-15T17:41:49.405Z,30.8
2023-02-15T17:44:49.384Z,30.6
2023-02-15T17:47:49.382Z,30.5
2023-02-15T17:50:49.383Z,28.3
2023-02-15T17:53:49.391Z,27.5
2023-02-15T17:56:49.395Z,28.1
2023-02-15T17:59:49.426Z,26.8
2023-02-15T18:02:49.399Z,31.7
2023-02-15T18:05:49.413Z,28
2023-02-15T18:08:49.416Z,32.6
2023-02-15T18:11:49.441Z,32.3
2023-02-15T18:14:49.423Z,31.5
2023-02-15T18:17:49.451Z,30.2
2023-02-15T18:20:49.453Z,30.5
2023-02-15T18:23:49.443Z,30.4
2023-02-15T18:26:49.446Z,29.2
2023-02-15T18:29:49.442Z,34.5
2023-02-15T18:32:49.464Z,28.5
2023-02-15T18:35:49.563Z,30
2023-02-15T18:38:49.448Z,28.2
2023-02-15T18:41:49.450Z,29.2
2023-02-15T18:44:49.454Z,29.7
2023-02-15T18:47:49.458Z,35.2
2023-02-15T18:50:49.461Z,38.8
2023-02-15T18:53:49.490Z,40.2
2023-02-15T18:56:49.499Z,37.4
2023-02-15T18:59:49.469Z,36.5
2023-02-15T19:02:49.475Z,36.2
2023-02-15T19:05:49.592Z,36.5
2023-02-15T19:08:49.493Z,36.3
2023-02-15T19:11:49.502Z,38.5
2023-02-15T19:14:49.478Z,37.8
2023-02-15T19:17:49.486Z,37
2023-02-15T19:20:49.577Z,36.4
2023-02-15T19:23:49.508Z,37.9
2023-02-15T19:26:49.497Z,36.8
2023-02-15T19:29:49.526Z,35.3
2023-02-15T19:32:49.524Z,37.4
2023-02-15T19:35:49.505Z,38.2
2023-02-15T19:38:49.504Z,37.7
2023-02-15T19:41:49.516Z,39
2023-02-15T19:44:49.511Z,38.7
2023-02-15T19:47:49.618Z,40.6
2023-02-15T19:50:49.529Z,39.3
2023-02-15T19:53:49.521Z,40.3
2023-02-15T19:56:49.525Z,39.9
2023-02-15T19:59:49.529Z,41.1
2023-02-15T20:02:49.529Z,41.1
2023-02-15T20:05:49.575Z,46.6
2023-02-15T20:08:49.545Z,45
2023-02-15T20:11:49.548Z,45.2
2023-02-15T20:14:49.546Z,44.9
2023-02-15T20:17:49.566Z,44.4
2023-02-15T20:20:49.581Z,47.5
2023-02-15T20:23:49.629Z,47.2
2023-02-15T20:26:49.611Z,48.7
2023-02-15T20:29:49.629Z,47.2
2023-02-15T20:32:49.634Z,45.3
2023-02-15T20:35:49.644Z,44.2
2023-02-15T20:38:49.648Z,43
2023-02-15T20:41:49.710Z,42.9
2023-02-15T20:44:49.673Z,46.8
2023-02-15T20:47:49.666Z,46
2023-02-15T20:50:49.675Z,42.8
2023-02-15T20:53:49.714Z,40.3
2023-02-15T20:56:49.701Z,40.3
2023-02-15T20:59:49.729Z,40.2
2023-02-15T21:02:49.700Z,40.1
2023-02-15T21:05:49.713Z,38.8
2023-02-15T21:08:49.710Z,39.8
2023-02-15T21:11:49.715Z,41.8
2023-02-15T21:14:49.721Z,41.3
2023-02-15T21:17:49.749Z,42.5
2023-02-15T21:20:49.734Z,42.4
2023-02-15T21:23:49.740Z,42.7
2023-02-15T21:26:49.752Z,40.3
2023-02-15T21:29:49.748Z,39.5
2023-02-15T21:32:49.752Z,39.5
2023-02-15T21:35:49.787Z,40.1
2023-02-15T21:38:49.771Z,40.3
2023-02-15T21:41:49.758Z,38.1
2023-02-15T21:44:49.766Z,39
2023-02-15T21:47:49.784Z,38.7
2023-02-15T21:50:49.812Z,36.4
2023-02-15T21:53:49.816Z,38.4
2023-02-15T21:56:49.788Z,37.8
2023-02-15T21:59:49.800Z,36.2
2023-02-15T22:02:49.820Z,33.5
2023-02-15T22:05:49.817Z,32.2
2023-02-15T22:08:49.812Z,30.1
2023-02-15T22:11:49.841Z,27.5
2023-02-15T22:14:49.815Z,26.7
2023-02-15T22:17:49.830Z,25.5
2023-02-15T22:20:49.849Z,23.6
2023-02-15T22:23:49.887Z,23.3
2023-02-15T22:26:49.885Z,23.2
2023-02-15T22:29:49.918Z,23.5
2023-02-15T22:32:49.893Z,23.8
2023-02-15T22:35:49.886Z,22.8
2023-02-15T22:38:49.883Z,22.9
2023-02-15T22:41:49.891Z,21.8
2023-02-15T22:44:49.889Z,21.8
2023-02-15T22:47:49.911Z,21.9
2023-02-15T22:50:49.890Z,21.8
2023-02-15T22:53:49.899Z,22.7
2023-02-15T22:56:49.897Z,22.1
2023-02-15T22:59:49.897Z,22.6
2023-02-15T23:02:49.894Z,21.7
2023-02-15T23:05:49.921Z,23.8
2023-02-15T23:08:49.917Z,22.8
2023-02-15T23:11:49.902Z,22.7
2023-02-15T23:14:49.907Z,23
2023-02-15T23:17:49.906Z,21.4
2023-02-15T23:20:49.905Z,23.3
2023-02-15T23:23:49.932Z,23.4
2023-02-15T23:26:49.911Z,22.9
2023-02-15T23:29:49.909Z,22.4
2023-02-15T23:32:49.913Z,23.4
2023-02-15T23:35:49.907Z,23.9
2023-02-15T23:38:49.908Z,25.2
2023-02-15T23:41:49.933Z,24.1
2023-02-15T23:44:49.916Z,24.5
2023-02-15T23:47:49.926Z,24.3
2023-02-15T23:50:49.915Z,25
2023-02-15T23:53:49.926Z,24.5
2023-02-15T23:56:49.930Z,24.8
2023-02-15T23:59:50.077Z,24
